sensor_id;sensor_type;location;lat;lon;timestamp;P1;durP1;ratioP1;P2;durP2;ratioP2
12842;SDS011;35724;49.324;-123.118;2022-10-18T00:03:35;11.32;;;9.68;;
12842;SDS011;35724;49.324;-123.118;2022-10-18T00:13:43;10.27;;;9.05;;
12842;SDS011;35724;49.324;-123.118;2022-10-18T00:35:05;10.30;;;8.68;;
12842;SDS011;35724;49.324;-123.118;2022-10-18T00:45:22;11.52;;;8.95;;
12842;SDS011;35724;49.324;-123.118;2022-10-18T00:55:30;10.98;;;9.85;;
12842;SDS011;35724;49.324;-123.118;2022-10-18T01:05:41;11.93;;;9.80;;
12842;SDS011;35724;49.324;-123.118;2022-10-18T01:15:52;12.02;;;9.48;;
12842;SDS011;35724;49.324;-123.118;2022-10-18T01:26:09;12.65;;;9.35;;
12842;SDS011;35724;49.324;-123.118;2022-10-18T01:36:28;11.38;;;10.07;;
12842;SDS011;35724;49.324;-123.118;2022-10-18T01:46:39;11.63;;;8.85;;
12842;SDS011;35724;49.324;-123.118;2022-10-18T01:56:51;10.00;;;8.52;;
12842;SDS011;35724;49.324;-123.118;2022-10-18T02:07:05;11.80;;;8.68;;
12842;SDS011;35724;49.324;-123.118;2022-10-18T02:17:21;11.63;;;8.88;;
12842;SDS011;35724;49.324;-123.118;2022-10-18T02:27:30;10.65;;;8.85;;
12842;SDS011;35724;49.324;-123.118;2022-10-18T02:37:39;16.25;;;9.95;;
12842;SDS011;35724;49.324;-123.118;2022-10-18T03:34:40;15.07;;;12.38;;
12842;SDS011;35724;49.324;-123.118;2022-10-18T03:44:47;13.77;;;10.35;;
12842;SDS011;35724;49.324;-123.118;2022-10-18T03:54:56;12.77;;;11.00;;
12842;SDS011;35724;49.324;-123.118;2022-10-18T04:05:03;11.23;;;10.02;;
12842;SDS011;35724;49.324;-123.118;2022-10-18T04:15:13;13.82;;;10.10;;
12842;SDS011;35724;49.324;-123.118;2022-10-18T04:25:20;13.90;;;10.20;;
12842;SDS011;35724;49.324;-123.118;2022-10-18T04:35:29;12.18;;;10.23;;
12842;SDS011;35724;49.324;-123.118;2022-10-18T04:45:36;12.27;;;10.15;;
12842;SDS011;35724;49.324;-123.118;2022-10-18T04:55:48;16.27;;;12.32;;
12842;SDS011;35724;49.324;-123.118;2022-10-18T05:18:00;16.05;;;14.35;;
12842;SDS011;35724;49.324;-123.118;2022-10-18T05:52:30;14.98;;;11.77;;
12842;SDS011;35724;49.324;-123.118;2022-10-18T06:02:39;13.73;;;12.25;;
12842;SDS011;35724;49.324;-123.118;2022-10-18T06:12:49;12.35;;;10.18;;
12842;SDS011;35724;49.324;-123.118;2022-10-18T06:23:07;11.85;;;10.52;;
12842;SDS011;35724;49.324;-123.118;2022-10-18T06:33:40;12.18;;;10.88;;
12842;SDS011;35724;49.324;-123.118;2022-10-18T06:43:48;16.75;;;11.30;;
12842;SDS011;35724;49.324;-123.118;2022-10-18T06:53:58;12.27;;;10.98;;
12842;SDS011;35724;49.324;-123.118;2022-10-18T07:04:20;12.95;;;11.57;;
12842;SDS011;35724;49.324;-123.118;2022-10-18T07:14:28;13.02;;;11.73;;
12842;SDS011;35724;49.324;-123.118;2022-10-18T07:24:35;13.50;;;12.10;;
12842;SDS011;35724;49.324;-123.118;2022-10-18T07:34:44;13.30;;;11.90;;
12842;SDS011;35724;49.324;-123.118;2022-10-18T07:44:56;15.13;;;13.63;;
12842;SDS011;35724;49.324;-123.118;2022-10-18T07:55:05;14.57;;;13.07;;
12842;SDS011;35724;49.324;-123.118;2022-10-18T08:05:13;15.00;;;13.40;;
12842;SDS011;35724;49.324;-123.118;2022-10-18T08:15:22;14.73;;;13.23;;
12842;SDS011;35724;49.324;-123.118;2022-10-18T08:25:31;15.50;;;14.00;;
12842;SDS011;35724;49.324;-123.118;2022-10-18T08:35:40;17.63;;;13.70;;
12842;SDS011;35724;49.324;-123.118;2022-10-18T08:46:15;14.75;;;13.25;;
12842;SDS011;35724;49.324;-123.118;2022-10-18T08:56:23;16.02;;;14.20;;
12842;SDS011;35724;49.324;-123.118;2022-10-18T09:06:33;14.63;;;13.15;;
12842;SDS011;35724;49.324;-123.118;2022-10-18T09:16:52;14.52;;;13.13;;
12842;SDS011;35724;49.324;-123.118;2022-10-18T09:27:11;15.43;;;13.65;;
12842;SDS011;35724;49.324;-123.118;2022-10-18T09:37:23;15.13;;;13.52;;
12842;SDS011;35724;49.324;-123.118;2022-10-18T09:47:43;16.15;;;14.48;;
12842;SDS011;35724;49.324;-123.118;2022-10-18T09:58:37;16.17;;;14.48;;
12842;SDS011;35724;49.324;-123.118;2022-10-18T10:09:13;17.67;;;15.73;;
12842;SDS011;35724;49.324;-123.118;2022-10-18T10:19:30;16.90;;;15.30;;
12842;SDS011;35724;49.324;-123.118;2022-10-18T10:29:52;16.60;;;14.90;;
12842;SDS011;35724;49.324;-123.118;2022-10-18T10:40:20;17.92;;;16.13;;
12842;SDS011;35724;49.324;-123.118;2022-10-18T10:50:30;16.80;;;15.10;;
12842;SDS011;35724;49.324;-123.118;2022-10-18T11:01:02;18.67;;;16.55;;
12842;SDS011;35724;49.324;-123.118;2022-10-18T11:11:28;19.42;;;17.38;;
12842;SDS011;35724;49.324;-123.118;2022-10-18T11:21:48;22.63;;;20.53;;
12842;SDS011;35724;49.324;-123.118;2022-10-18T11:32:00;21.95;;;19.75;;
12842;SDS011;35724;49.324;-123.118;2022-10-18T11:42:20;24.10;;;21.63;;
12842;SDS011;35724;49.324;-123.118;2022-10-18T11:52:42;21.70;;;19.60;;
12842;SDS011;35724;49.324;-123.118;2022-10-18T12:03:10;24.02;;;21.52;;
12842;SDS011;35724;49.324;-123.118;2022-10-18T12:13:26;25.17;;;22.23;;
12842;SDS011;35724;49.324;-123.118;2022-10-18T12:23:50;23.42;;;21.02;;
12842;SDS011;35724;49.324;-123.118;2022-10-18T12:34:24;22.83;;;20.42;;
12842;SDS011;35724;49.324;-123.118;2022-10-18T12:44:39;25.45;;;22.90;;
12842;SDS011;35724;49.324;-123.118;2022-10-18T12:54:59;24.40;;;21.58;;
12842;SDS011;35724;49.324;-123.118;2022-10-18T13:16:12;26.00;;;23.20;;
12842;SDS011;35724;49.324;-123.118;2022-10-18T13:26:38;25.35;;;22.75;;
12842;SDS011;35724;49.324;-123.118;2022-10-18T13:37:19;25.98;;;23.38;;
12842;SDS011;35724;49.324;-123.118;2022-10-18T13:47:32;28.35;;;25.42;;
12842;SDS011;35724;49.324;-123.118;2022-10-18T13:57:46;26.88;;;24.08;;
12842;SDS011;35724;49.324;-123.118;2022-10-18T14:08:03;28.00;;;25.08;;
12842;SDS011;35724;49.324;-123.118;2022-10-18T14:18:22;29.50;;;26.70;;
12842;SDS011;35724;49.324;-123.118;2022-10-18T14:28:40;26.13;;;23.33;;
12842;SDS011;35724;49.324;-123.118;2022-10-18T14:51:28;28.60;;;25.65;;
12842;SDS011;35724;49.324;-123.118;2022-10-18T15:02:09;31.02;;;27.73;;
12842;SDS011;35724;49.324;-123.118;2022-10-18T15:12:39;30.20;;;26.30;;
12842;SDS011;35724;49.324;-123.118;2022-10-18T15:23:19;28.83;;;24.00;;
12842;SDS011;35724;49.324;-123.118;2022-10-18T15:33:31;29.85;;;26.75;;
12842;SDS011;35724;49.324;-123.118;2022-10-18T15:43:38;30.45;;;27.27;;
12842;SDS011;35724;49.324;-123.118;2022-10-18T15:53:51;29.75;;;26.55;;
12842;SDS011;35724;49.324;-123.118;2022-10-18T16:03:59;31.70;;;28.35;;
12842;SDS011;35724;49.324;-123.118;2022-10-18T16:14:11;33.08;;;29.63;;
12842;SDS011;35724;49.324;-123.118;2022-10-18T16:24:18;37.50;;;33.90;;
12842;SDS011;35724;49.324;-123.118;2022-10-18T16:45:00;31.25;;;27.98;;
12842;SDS011;35724;49.324;-123.118;2022-10-18T16:55:09;32.03;;;28.60;;
12842;SDS011;35724;49.324;-123.118;2022-10-18T17:05:25;27.95;;;25.10;;
12842;SDS011;35724;49.324;-123.118;2022-10-18T17:15:35;27.60;;;24.60;;
12842;SDS011;35724;49.324;-123.118;2022-10-18T17:25:44;25.73;;;23.05;;
12842;SDS011;35724;49.324;-123.118;2022-10-18T17:36:10;27.45;;;23.63;;
12842;SDS011;35724;49.324;-123.118;2022-10-18T17:46:18;25.77;;;23.15;;
12842;SDS011;35724;49.324;-123.118;2022-10-18T17:56:28;23.67;;;21.27;;
12842;SDS011;35724;49.324;-123.118;2022-10-18T18:06:36;22.48;;;20.17;;
12842;SDS011;35724;49.324;-123.118;2022-10-18T18:16:45;22.75;;;20.55;;
12842;SDS011;35724;49.324;-123.118;2022-10-18T18:26:54;22.92;;;20.52;;
12842;SDS011;35724;49.324;-123.118;2022-10-18T18:37:05;21.27;;;19.08;;
12842;SDS011;35724;49.324;-123.118;2022-10-18T18:47:15;27.25;;;24.45;;
12842;SDS011;35724;49.324;-123.118;2022-10-18T18:57:27;28.92;;;26.02;;
12842;SDS011;35724;49.324;-123.118;2022-10-18T19:07:35;27.88;;;24.98;;
12842;SDS011;35724;49.324;-123.118;2022-10-18T19:17:46;28.83;;;25.63;;
12842;SDS011;35724;49.324;-123.118;2022-10-18T19:27:55;32.15;;;28.77;;
12842;SDS011;35724;49.324;-123.118;2022-10-18T19:38:07;35.30;;;32.03;;
12842;SDS011;35724;49.324;-123.118;2022-10-18T19:48:14;34.83;;;31.33;;
12842;SDS011;35724;49.324;-123.118;2022-10-18T19:58:23;34.47;;;31.02;;
12842;SDS011;35724;49.324;-123.118;2022-10-18T20:08:31;33.17;;;29.65;;
12842;SDS011;35724;49.324;-123.118;2022-10-18T20:18:42;33.10;;;29.80;;
12842;SDS011;35724;49.324;-123.118;2022-10-18T20:28:50;34.97;;;30.25;;
12842;SDS011;35724;49.324;-123.118;2022-10-18T20:39:02;33.58;;;30.17;;
12842;SDS011;35724;49.324;-123.118;2022-10-18T20:49:11;33.33;;;30.13;;
12842;SDS011;35724;49.324;-123.118;2022-10-18T21:09:47;37.15;;;33.13;;
12842;SDS011;35724;49.324;-123.118;2022-10-18T21:19:56;36.40;;;32.53;;
12842;SDS011;35724;49.324;-123.118;2022-10-18T21:30:04;38.92;;;34.47;;
12842;SDS011;35724;49.324;-123.118;2022-10-18T21:40:13;40.28;;;35.95;;
12842;SDS011;35724;49.324;-123.118;2022-10-18T21:50:20;40.63;;;36.45;;
12842;SDS011;35724;49.324;-123.118;2022-10-18T22:00:29;41.63;;;37.22;;
12842;SDS011;35724;49.324;-123.118;2022-10-18T22:10:37;32.97;;;29.42;;
12842;SDS011;35724;49.324;-123.118;2022-10-18T22:20:53;29.33;;;26.27;;
12842;SDS011;35724;49.324;-123.118;2022-10-18T22:31:01;29.20;;;26.30;;
12842;SDS011;35724;49.324;-123.118;2022-10-18T22:41:10;27.30;;;24.50;;
12842;SDS011;35724;49.324;-123.118;2022-10-18T22:51:18;27.95;;;25.13;;
12842;SDS011;35724;49.324;-123.118;2022-10-18T23:01:26;25.27;;;22.77;;
12842;SDS011;35724;49.324;-123.118;2022-10-18T23:11:35;27.25;;;24.23;;
12842;SDS011;35724;49.324;-123.118;2022-10-18T23:21:47;28.52;;;25.52;;
12842;SDS011;35724;49.324;-123.118;2022-10-18T23:31:54;25.08;;;22.67;;
12842;SDS011;35724;49.324;-123.118;2022-10-18T23:42:03;26.00;;;23.45;;
12842;SDS011;35724;49.324;-123.118;2022-10-18T23:52:10;37.35;;;33.70;;
